Time;durP1;ratioP1;P1;durP2;ratioP2;P2;SDS_P1;SDS_P2;PMS_P1;PMS_P2;Temp;Humidity;BMP_temperature;BMP_pressure;BME280_temperature;BME280_humidity;BME280_pressure;Samples;Min_cycle;Max_cycle;Signal;HPM_P1;HPM_P2
2022/07/23 00:00:17;;;;;;;6.93;2.60;;;13.20;99.90;;;;;;5095989;28;20704;-80
2022/07/23 00:02:45;;;;;;;6.73;2.20;;;13.40;99.90;;;;;;5094989;28;20445;-80
2022/07/23 00:05:12;;;;;;;6.20;1.80;;;13.60;99.90;;;;;;5094481;28;20388;-84
2022/07/23 00:07:39;;;;;;;5.80;1.70;;;13.50;99.90;;;;;;5094651;28;20414;-82
2022/07/23 00:10:07;;;;;;;4.70;1.70;;;13.60;99.90;;;;;;5095112;28;20913;-84
2022/07/23 00:12:34;;;;;;;6.45;2.10;;;13.60;99.90;;;;;;5094804;28;20438;-79
2022/07/23 00:15:04;;;;;;;6.18;1.80;;;13.50;99.90;;;;;;5095122;28;20769;-83
2022/07/23 00:17:32;;;;;;;6.30;1.70;;;13.40;99.90;;;;;;5094717;28;20380;-79
2022/07/23 00:19:59;;;;;;;5.63;1.70;;;13.40;99.90;;;;;;5094276;28;20426;-79
2022/07/23 00:22:28;;;;;;;6.43;1.65;;;13.50;99.90;;;;;;5094236;28;20518;-84
2022/07/23 00:24:56;;;;;;;5.47;1.50;;;13.60;99.90;;;;;;5094118;28;20852;-80
2022/07/23 00:27:23;;;;;;;5.60;1.35;;;13.90;99.90;;;;;;5095386;28;20823;-80
2022/07/23 00:29:50;;;;;;;3.50;1.20;;;14.00;99.90;;;;;;5094120;28;20721;-85
2022/07/23 00:32:17;;;;;;;4.10;1.30;;;14.10;99.90;;;;;;5094139;28;20446;-82
2022/07/23 00:34:44;;;;;;;5.50;1.40;;;14.00;99.90;;;;;;5094198;28;20373;-83
2022/07/23 00:37:11;;;;;;;4.38;1.30;;;13.90;99.90;;;;;;5094159;28;20925;-81
2022/07/23 00:39:38;;;;;;;5.18;1.50;;;14.10;99.90;;;;;;5094022;28;20431;-81
2022/07/23 00:42:06;;;;;;;5.43;1.63;;;14.30;99.90;;;;;;5093989;28;20372;-85
2022/07/23 00:44:33;;;;;;;5.78;1.50;;;14.30;99.90;;;;;;5094026;28;20364;-83
2022/07/23 00:47:00;;;;;;;7.57;1.70;;;14.30;99.90;;;;;;5093719;28;20462;-81
2022/07/23 00:49:30;;;;;;;5.22;1.50;;;14.40;99.90;;;;;;5093929;28;20369;-81
2022/07/23 00:52:01;;;;;;;5.60;1.38;;;14.50;99.90;;;;;;5094195;28;20728;-83
2022/07/23 00:54:29;;;;;;;5.35;1.60;;;14.40;99.90;;;;;;5093810;28;20782;-85
2022/07/23 00:56:56;;;;;;;5.35;1.60;;;14.30;99.90;;;;;;5093739;28;20380;-86
2022/07/23 00:59:23;;;;;;;5.25;1.42;;;14.30;99.90;;;;;;5092535;28;20721;-82
2022/07/23 01:01:50;;;;;;;5.10;1.60;;;14.10;99.90;;;;;;5093969;28;20368;-81
2022/07/23 01:04:17;;;;;;;5.75;1.60;;;13.90;99.90;;;;;;5093577;28;20463;-83
2022/07/23 01:06:45;;;;;;;5.53;1.55;;;13.40;99.90;;;;;;5093967;28;20760;-84
2022/07/23 01:09:12;;;;;;;4.70;1.45;;;14.00;99.90;;;;;;5093594;28;20759;-84
2022/07/23 01:11:41;;;;;;;4.85;1.40;;;14.10;99.90;;;;;;5093708;28;20784;-83
2022/07/23 01:14:19;;;;;;;3.63;1.30;;;14.10;99.90;;;;;;5093594;28;20740;-79
2022/07/23 01:16:48;;;;;;;5.75;1.50;;;14.30;99.90;;;;;;5093274;28;20880;-83
2022/07/23 01:19:16;;;;;;;4.03;1.30;;;14.50;99.90;;;;;;5093156;28;20373;-84
2022/07/23 01:21:48;;;;;;;4.13;1.23;;;14.50;99.90;;;;;;5093477;28;20752;-79
2022/07/23 01:24:16;;;;;;;5.32;1.50;;;14.50;99.90;;;;;;5096625;28;20405;-79
2022/07/23 01:26:45;;;;;;;7.57;1.70;;;14.60;99.90;;;;;;5106620;28;20392;-80
2022/07/23 01:29:13;;;;;;;3.72;1.95;;;14.50;99.90;;;;;;5107495;28;20381;-80
2022/07/23 01:31:41;;;;;;;3.75;1.20;;;14.80;99.90;;;;;;5108617;28;20383;-80
2022/07/23 01:34:08;;;;;;;5.47;1.30;;;14.90;99.90;;;;;;5107419;28;20373;-81
2022/07/23 01:36:36;;;;;;;3.28;1.15;;;15.00;99.90;;;;;;5106932;28;20915;-80
2022/07/23 01:39:04;;;;;;;3.50;1.20;;;;;;;;;;5108303;28;20413;-81
2022/07/23 01:41:31;;;;;;;3.95;1.10;;;;;;;;;;5107647;28;20417;-82
2022/07/23 01:43:58;;;;;;;3.47;1.23;;;;;;;;;;5103331;28;20368;-85
2022/07/23 01:46:25;;;;;;;5.50;1.90;;;15.40;99.90;;;;;;5093037;28;20454;-80
2022/07/23 01:48:52;;;;;;;5.07;2.00;;;15.40;99.90;;;;;;5092948;28;20372;-80
2022/07/23 01:51:19;;;;;;;5.45;1.10;;;15.10;99.90;;;;;;5093303;28;20377;-80
2022/07/23 01:53:46;;;;;;;4.28;1.30;;;15.00;99.90;;;;;;5092751;28;20554;-81
2022/07/23 01:56:14;;;;;;;4.72;1.20;;;15.10;99.90;;;;;;5092895;28;20372;-83
2022/07/23 01:58:42;;;;;;;5.35;1.17;;;15.10;99.90;;;;;;5092918;28;20372;-81
2022/07/23 02:01:09;;;;;;;4.00;1.30;;;;;;;;;;5091675;28;20791;-84
2022/07/23 02:03:36;;;;;;;3.72;1.20;;;;;;;;;;5093110;28;20365;-85
2022/07/23 02:06:03;;;;;;;3.35;1.10;;;;;;;;;;5092558;28;20752;-81
2022/07/23 02:08:30;;;;;;;4.35;1.20;;;;;;;;;;5092811;28;20364;-82
2022/07/23 02:10:57;;;;;;;4.13;1.10;;;;;;;;;;5092669;28;20461;-85
2022/07/23 02:13:24;;;;;;;3.90;1.10;;;;;;;;;;5092439;28;20459;-82
2022/07/23 02:15:51;;;;;;;4.27;1.00;;;;;;;;;;5090878;28;20906;-81
2022/07/23 02:18:18;;;;;;;4.17;1.00;;;;;;;;;;5092655;28;20458;-85
2022/07/23 02:20:45;;;;;;;3.20;0.90;;;;;;;;;;5092357;28;20451;-82
2022/07/23 02:23:12;;;;;;;3.92;0.90;;;;;;;;;;5092126;28;20400;-85
2022/07/23 02:25:39;;;;;;;5.40;0.95;;;;;;;;;;5092050;28;20992;-82
2022/07/23 02:28:07;;;;;;;3.20;0.80;;;;;;;;;;5092424;28;20381;-83
2022/07/23 02:30:34;;;;;;;2.42;0.90;;;;;;;;;;5092436;28;20357;-82
2022/07/23 02:33:01;;;;;;;3.28;0.95;;;;;;;;;;5092539;28;20728;-83
2022/07/23 02:35:28;;;;;;;2.47;0.80;;;;;;;;;;5092380;28;20364;-80
2022/07/23 02:37:55;;;;;;;2.85;0.95;;;;;;;;;;5091924;28;20388;-82
2022/07/23 02:40:23;;;;;;;3.30;1.05;;;;;;;;;;5092390;28;20361;-83
2022/07/23 02:42:50;;;;;;;3.17;1.10;;;;;;;;;;5092584;28;20364;-80
2022/07/23 02:45:17;;;;;;;4.78;1.20;;;;;;;;;;5092521;28;20396;-83
2022/07/23 02:47:43;;;;;;;5.15;1.38;;;;;;;;;;5091577;28;20388;-87
2022/07/23 02:50:11;;;;;;;4.43;1.10;;;;;;;;;;5098339;28;20374;-88
2022/07/23 02:52:39;;;;;;;3.53;1.10;;;;;;;;;;5098018;28;20408;-88
2022/07/23 02:55:06;;;;;;;1.77;0.83;;;;;;;;;;5097592;28;20361;-84
2022/07/23 02:57:33;;;;;;;4.70;1.00;;;;;;;;;;5097466;28;20392;-84
2022/07/23 03:00:01;;;;;;;4.32;1.10;;;;;;;;;;5096720;28;20360;-85
2022/07/23 03:02:28;;;;;;;4.35;1.10;;;;;;;;;;5096155;28;20407;-85
2022/07/23 03:04:55;;;;;;;2.42;0.90;;;;;;;;;;5095935;28;20880;-85
2022/07/23 03:07:22;;;;;;;3.35;0.90;;;;;;;;;;5096100;28;20380;-84
2022/07/23 03:09:49;;;;;;;4.15;1.10;;;;;;;;;;5096167;28;20430;-84
2022/07/23 03:12:16;;;;;;;3.63;1.10;;;;;;;;;;5095788;28;20428;-86
2022/07/23 03:14:43;;;;;;;3.53;1.20;;;;;;;;;;5095777;28;20369;-86
2022/07/23 03:17:10;;;;;;;5.13;1.38;;;;;;;;;;5096759;28;20365;-83
2022/07/23 03:19:38;;;;;;;4.57;1.30;;;;;;;;;;5095627;28;20369;-81
2022/07/23 03:22:05;;;;;;;4.97;1.30;;;;;;;;;;5095728;28;20361;-83
2022/07/23 03:27:17;;;;;;;4.30;1.38;;;;;;;;;;5095476;28;20546;-82
2022/07/23 03:29:44;;;;;;;4.60;1.40;;;;;;;;;;5095687;28;20713;-86
2022/07/23 03:32:11;;;;;;;5.32;1.40;;;;;;;;;;5095674;28;20364;-82
2022/07/23 03:34:39;;;;;;;3.88;1.80;;;;;;;;;;5095349;28;20380;-86
2022/07/23 03:37:06;;;;;;;6.53;2.80;;;;;;;;;;5095345;28;20424;-87
2022/07/23 03:39:33;;;;;;;5.72;2.00;;;;;;;;;;5095640;28;20422;-83
2022/07/23 03:42:00;;;;;;;4.40;2.00;;;;;;;;;;5095484;28;20716;-84
2022/07/23 03:44:27;;;;;;;8.25;2.33;;;;;;;;;;5095431;28;20374;-85
2022/07/23 03:46:54;;;;;;;4.20;1.75;;;;;;;;;;5095072;28;20435;-83
2022/07/23 03:49:21;;;;;;;4.45;1.90;;;;;;;;;;5095520;28;20361;-81
2022/07/23 03:51:48;;;;;;;4.78;1.70;;;;;;;;;;5095424;28;20844;-84
2022/07/23 03:54:15;;;;;;;6.00;1.92;;;;;;;;;;5095462;28;20360;-81
2022/07/23 03:56:42;;;;;;;4.63;1.35;;;;;;;;;;5094992;28;20407;-84
2022/07/23 03:59:10;;;;;;;2.45;1.15;;;;;;;;;;5094832;28;20372;-82
2022/07/23 04:01:37;;;;;;;2.22;1.00;;;;;;;;;;5094837;28;20368;-86
2022/07/23 04:04:04;;;;;;;2.80;1.00;;;;;;;;;;5093619;28;20690;-85
2022/07/23 04:06:32;;;;;;;3.33;1.30;;;;;;;;;;5094655;28;20426;-84
2022/07/23 04:08:59;;;;;;;2.33;1.20;;;;;;;;;;5095388;28;20368;-86
2022/07/23 04:11:26;;;;;;;4.57;1.60;;;;;;;;;;5094981;28;20364;-83
2022/07/23 04:13:53;;;;;;;3.00;1.00;;;;;;;;;;5094921;28;20848;-84
2022/07/23 04:16:20;;;;;;;2.38;0.70;;;;;;;;;;5094360;28;20364;-86
2022/07/23 04:18:47;;;;;;;1.83;0.68;;;;;;;;;;5096088;28;20380;-84
2022/07/23 04:21:15;;;;;;;1.38;0.60;;;;;;;;;;5097089;28;20932;-88
2022/07/23 04:23:42;;;;;;;1.05;0.50;;;;;;;;;;5096573;28;20400;-85
2022/07/23 04:26:09;;;;;;;2.08;0.50;;;;;;;;;;5095531;28;20388;-83
2022/07/23 04:28:36;;;;;;;0.85;0.40;;;;;;;;;;5096786;28;20376;-88
2022/07/23 04:31:03;;;;;;;1.25;0.57;;;;;;;;;;5096377;28;20360;-90
2022/07/23 04:33:31;;;;;;;1.00;0.40;;;;;;;;;;5095930;28;20852;-87
2022/07/23 04:35:58;;;;;;;1.70;0.50;;;;;;;;;;5095306;28;20395;-85
2022/07/23 04:38:25;;;;;;;0.98;0.35;;;;;;;;;;5094858;28;20392;-85
2022/07/23 04:40:52;;;;;;;2.22;0.50;;;;;;;;;;5094881;28;20368;-85
2022/07/23 04:43:20;;;;;;;1.90;0.80;;;;;;;;;;5094141;28;20368;-85
2022/07/23 04:45:47;;;;;;;2.60;1.60;;;;;;;;;;5094136;28;20755;-87
2022/07/23 04:48:14;;;;;;;4.88;4.00;;;;;;;;;;5093797;28;20369;-86
2022/07/23 04:50:42;;;;;;;5.82;4.15;;;;;;;;;;5093979;28;20369;-89
2022/07/23 04:53:09;;;;;;;7.30;5.47;;;;;;;;;;5093536;28;20361;-86
2022/07/23 04:55:36;;;;;;;5.40;4.90;;;;;;;;;;5093477;28;20457;-85
2022/07/23 04:58:03;;;;;;;3.93;3.30;;;;;;;;;;5093439;28;20373;-85
2022/07/23 05:00:30;;;;;;;5.23;3.13;;;;;;;;;;5093521;28;20369;-85
2022/07/23 05:02:57;;;;;;;4.47;1.80;;;;;;;;;;5093781;28;20381;-84
2022/07/23 05:05:24;;;;;;;3.63;1.30;;;;;;;;;;5093934;28;20383;-85
2022/07/23 05:07:51;;;;;;;2.10;1.10;;;;;;;;;;5093750;28;20452;-86
2022/07/23 05:10:18;;;;;;;2.55;1.20;;;;;;;;;;5094021;28;20433;-86
2022/07/23 05:12:45;;;;;;;3.20;1.25;;;;;;;;;;5093766;28;20404;-85
2022/07/23 05:15:12;;;;;;;4.30;0.82;;;;;;;;;;5093204;28;20361;-87
2022/07/23 05:17:39;;;;;;;2.80;0.98;;;;;;;;;;5093614;28;20463;-84
2022/07/23 05:20:06;;;;;;;3.53;1.00;;;;;;;;;;5093375;28;20361;-84
2022/07/23 05:22:33;;;;;;;2.17;0.65;;;;;;;;;;5092066;28;20385;-83
2022/07/23 05:25:00;;;;;;;3.63;0.60;;;;;;;;;;5093514;28;20364;-85
2022/07/23 05:27:27;;;;;;;1.60;0.73;;;;;;;;;;5093371;28;20876;-84
2022/07/23 05:29:54;;;;;;;1.92;1.10;;;;;;;;;;5091929;28;20775;-85
2022/07/23 05:32:21;;;;;;;1.00;0.80;;;;;;;;;;5093463;28;20372;-85
2022/07/23 05:34:48;;;;;;;1.58;0.60;;;;;;;;;;5093211;28;20459;-86
2022/07/23 05:37:16;;;;;;;0.90;0.40;;;;;;;;;;5092647;28;20961;-86
2022/07/23 05:39:43;;;;;;;1.52;0.57;;;;;;;;;;5093077;28;20402;-84
2022/07/23 05:42:10;;;;;;;1.17;0.43;;;;;;;;;;5092795;28;20387;-83
2022/07/23 05:44:37;;;;;;;1.63;0.50;;;;;;;;;;5092835;28;20464;-83
2022/07/23 05:47:04;;;;;;;1.00;0.68;;;;;;;;;;5092762;28;20457;-84
2022/07/23 05:49:31;;;;;;;1.02;0.50;;;;;;;;;;5092919;28;20766;-84
2022/07/23 05:51:58;;;;;;;0.68;0.50;;;;;;;;;;5092823;28;20372;-83
2022/07/23 05:54:25;;;;;;;0.50;0.50;;;;;;;;;;5097035;28;20526;-84
2022/07/23 05:56:52;;;;;;;1.70;0.50;;;;;;;;;;5095962;28;20501;-84
2022/07/23 05:59:19;;;;;;;0.85;0.50;;;;;;;;;;5092741;28;20364;-84
2022/07/23 06:01:46;;;;;;;0.40;0.40;;;;;;;;;;5093228;28;20447;-87
2022/07/23 06:04:13;;;;;;;0.77;0.47;;;;;;;;;;5092734;28;20379;-84
2022/07/23 06:06:40;;;;;;;1.90;0.50;;;;;;;;;;5092992;28;20797;-85
2022/07/23 06:09:07;;;;;;;1.88;0.70;;;;;;;;;;5091827;28;20400;-85
2022/07/23 06:11:34;;;;;;;1.20;0.70;;;;;;;;;;5093234;28;20396;-90
2022/07/23 06:14:02;;;;;;;1.30;1.20;;;;;;;;;;5094798;28;20858;-87
2022/07/23 06:16:29;;;;;;;2.50;2.00;;;;;;;;;;5094896;28;20380;-84
2022/07/23 06:18:56;;;;;;;2.38;2.17;;;;;;;;;;5098078;28;20369;-84
2022/07/23 06:21:23;;;;;;;1.90;1.80;;;;;;;;;;5096341;28;20376;-86
2022/07/23 06:23:50;;;;;;;1.65;1.55;;;;;;;;;;5093143;28;20372;-86
2022/07/23 06:26:17;;;;;;;1.40;1.30;;;;;;;;;;5092582;28;20404;-85
2022/07/23 06:28:44;;;;;;;1.88;1.50;;;;;;;;;;5095969;28;20445;-86
2022/07/23 06:31:11;;;;;;;1.65;1.55;;;;;;;;;;5097702;28;20379;-90
2022/07/23 06:33:38;;;;;;;1.90;1.80;;;;;;;;;;5096822;28;20803;-86
2022/07/23 06:36:05;;;;;;;2.13;2.00;;;;;;;;;;5096909;28;20387;-85
2022/07/23 06:38:32;;;;;;;3.60;3.35;;;;;;;;;;5096128;28;20768;-85
2022/07/23 06:40:59;;;;;;;5.63;5.13;;;;;;;;;;5096315;28;20376;-84
2022/07/23 06:43:26;;;;;;;4.70;4.40;;;;;;;;;;5096633;28;20372;-84
2022/07/23 06:45:53;;;;;;;3.00;2.80;;;;;;;;;;5096447;28;20387;-84
2022/07/23 06:48:20;;;;;;;1.30;1.20;;;;;;;;;;5097124;28;20918;-83
2022/07/23 06:50:47;;;;;;;1.30;0.65;;;;;;;;;;5096595;28;20364;-84
2022/07/23 06:53:14;;;;;;;0.80;0.50;;;;;;;;;;5096405;28;20383;-85
2022/07/23 06:55:41;;;;;;;1.58;0.55;;;;;;;;;;5096242;28;20693;-85
2022/07/23 06:58:09;;;;;;;1.33;0.60;;;;;;;;;;5096162;28;20364;-84
2022/07/23 07:00:37;;;;;;;1.05;0.70;;;;;;;;;;5096849;28;20875;-85
2022/07/23 07:03:04;;;;;;;1.15;1.00;;;;;;;;;;5095970;28;20369;-85
2022/07/23 07:05:31;;;;;;;1.05;0.93;;;;;;;;;;5096137;28;20399;-84
2022/07/23 07:07:58;;;;;;;2.50;1.67;;;;;;;;;;5095801;28;20365;-85
2022/07/23 07:10:25;;;;;;;2.30;2.10;;;;;;;;;;5095945;28;20451;-83
2022/07/23 07:12:52;;;;;;;4.85;3.50;;;;;;;;;;5094234;28;20375;-84
2022/07/23 07:15:19;;;;;;;2.00;1.30;;;;;;;;;;5095778;28;20377;-83
2022/07/23 07:17:47;;;;;;;0.90;0.80;;;;;;;;;;5095800;28;20778;-86
2022/07/23 07:20:14;;;;;;;0.82;0.70;;;;;;;;;;5095904;28;20380;-85
2022/07/23 07:22:41;;;;;;;1.83;0.77;;;;;;;;;;5095825;28;20742;-84
2022/07/23 07:25:08;;;;;;;2.90;0.80;;;;;;;;;;5095536;28;20425;-85
2022/07/23 07:27:35;;;;;;;2.40;0.90;;;;;;;;;;5094233;28;20388;-87
2022/07/23 07:30:03;;;;;;;2.88;1.15;;;;;;;;;;5095375;28;20428;-86
2022/07/23 07:32:32;;;;;;;3.47;3.17;;;;;;;;;;5095662;28;20373;-86
2022/07/23 07:34:59;;;;;;;3.38;2.47;;;;;;;;;;5095155;28;20373;-85
2022/07/23 07:37:26;;;;;;;7.47;6.45;;;;;;;;;;5095149;28;20412;-85
2022/07/23 07:39:53;;;;;;;2.78;1.95;;;;;;;;;;5095181;28;20413;-83
2022/07/23 07:42:20;;;;;;;2.20;2.00;;;;;;;;;;5095259;28;20369;-84
2022/07/23 07:44:47;;;;;;;2.43;1.60;;;;;;;;;;5095358;28;20459;-86
2022/07/23 07:47:15;;;;;;;2.20;1.50;;;;;;;;;;5095188;28;20541;-83
2022/07/23 07:49:43;;;;;;;3.50;2.10;;;;;;;;;;5098376;28;20491;-87
2022/07/23 07:52:10;;;;;;;1.80;1.60;;;;;;;;;;5094401;28;20372;-87
2022/07/23 07:54:37;;;;;;;3.30;1.27;;;;;;;;;;5095523;28;20850;-82
2022/07/23 07:57:04;;;;;;;2.00;1.00;;;;;;;;;;5095062;28;20357;-82
2022/07/23 07:59:31;;;;;;;1.90;1.00;;;;;;;;;;5095791;28;20821;-84
2022/07/23 08:01:58;;;;;;;2.00;1.20;;;;;;;;;;5095380;28;20394;-85
2022/07/23 08:04:25;;;;;;;1.98;1.10;;;;;;;;;;5095090;28;20369;-83
2022/07/23 08:06:52;;;;;;;1.38;1.00;;;;;;;;;;5095591;28;20407;-89
2022/07/23 08:09:19;;;;;;;1.52;1.20;;;;;;;;;;5094962;28;20371;-86
2022/07/23 08:11:46;;;;;;;2.47;1.35;;;;;;;;;;5094686;28;20371;-91
2022/07/23 08:14:14;;;;;;;1.73;1.20;;;;;;;;;;5094840;28;20376;-92
2022/07/23 08:16:41;;;;;;;1.60;1.30;;;;;;;;;;5094185;28;20426;-83
2022/07/23 08:19:08;;;;;;;1.80;1.40;;;;;;;;;;5094566;28;20777;-85
2022/07/23 08:21:35;;;;;;;1.73;1.50;;;;;;;;;;5094242;28;20372;-82
2022/07/23 08:24:02;;;;;;;2.42;1.55;;;;;;;;;;5094556;28;20866;-85
2022/07/23 08:26:29;;;;;;;2.63;1.80;;;;;;;;;;5094189;28;20427;-87
2022/07/23 08:28:56;;;;;;;3.67;2.40;;;;;;;;;;5094082;28;20371;-84
2022/07/23 08:31:23;;;;;;;2.50;2.30;;;;;;;;;;5092757;28;20427;-85
2022/07/23 08:33:52;;;;;;;4.17;2.70;;;;;;;;;;5093886;28;20364;-82
2022/07/23 08:36:19;;;;;;;3.85;3.35;;;;;;;;;;5094096;28;20368;-83
2022/07/23 08:38:46;;;;;;;12.73;9.80;;;;;;;;;;5093829;28;20820;-84
2022/07/23 08:41:13;;;;;;;13.03;11.83;;;;;;;;;;5094465;28;20375;-87
2022/07/23 08:43:41;;;;;;;14.07;12.73;;;;;;;;;;5094022;28;20399;-84
2022/07/23 08:46:08;;;;;;;41.03;37.73;;;;;;;;;;5093845;28;20480;-85
2022/07/23 08:48:38;;;;;;;20.20;18.60;;;;;;;;;;5094056;28;20392;-82
2022/07/23 08:51:06;;;;;;;9.75;8.88;;;;;;;;;;5093748;28;20361;-82
2022/07/23 08:53:37;;;;;;;8.20;6.63;;;;;;;;;;5094202;28;20364;-90
2022/07/23 08:56:07;;;;;;;7.95;7.15;;;;;;;;;;5092700;28;20787;-83
2022/07/23 08:58:34;;;;;;;7.63;6.82;;;;;;;;;;5092504;28;20380;-87
2022/07/23 09:01:02;;;;;;;8.95;7.93;;;;;;;;;;5095069;28;20376;-85
2022/07/23 09:03:30;;;;;;;13.77;12.07;;;;;;;;;;5094823;28;20365;-89
2022/07/23 09:05:58;;;;;;;15.53;13.50;;;;;;;;;;5094203;28;20395;-85
2022/07/23 09:09:00;;;;;;;12.27;10.73;;;;;;;;;;5092349;28;20396;-85
2022/07/23 09:11:27;;;;;;;11.63;10.45;;;;;;;;;;5013414;28;20387;-87
2022/07/23 09:13:58;;;;;;;8.32;7.10;;;;;;;;;;5012224;28;20378;-85
2022/07/23 09:16:25;;;;;;;8.07;7.28;;;;;;;;;;5011823;28;20371;-83
2022/07/23 09:18:56;;;;;;;7.50;6.75;;;;;;;;;;5011567;28;20497;-81
2022/07/23 09:21:24;;;;;;;6.30;5.65;;;;;;;;;;5011592;28;20383;-83
2022/07/23 09:23:53;;;;;;;5.60;4.60;;;;;;;;;;5011292;28;20859;-86
2022/07/23 09:26:22;;;;;;;5.75;4.00;;;;;;;;;;5011592;28;20474;-82
2022/07/23 09:28:54;;;;;;;6.00;4.70;;;;;;;;;;5011387;28;20382;-82
2022/07/23 09:31:21;;;;;;;6.43;5.15;;;;;;;;;;5011364;28;20367;-82
2022/07/23 09:33:48;;;;;;;5.47;4.72;;;;;;;;;;5011454;28;20859;-89
2022/07/23 09:36:15;;;;;;;8.27;5.53;;;;;;;;;;5010846;28;20470;-85
2022/07/23 09:38:50;;;;;;;6.00;5.40;;;15.20;99.90;;;;;;5010673;28;20917;-83
2022/07/23 09:41:18;;;;;;;8.45;7.55;;;12.10;99.90;;;;;;5010773;28;20386;-82
2022/07/23 09:43:45;;;;;;;8.40;6.80;;;12.00;99.90;;;;;;5011179;28;20391;-84
2022/07/23 09:46:27;;;;;;;8.98;7.97;;;11.90;99.90;;;;;;5080228;28;20491;-82
2022/07/23 09:48:58;;;;;;;10.38;9.27;;;12.00;99.90;;;;;;5094289;28;20369;-93
2022/07/23 09:51:37;;;;;;;11.95;9.82;;;11.90;99.90;;;;;;5092281;28;20411;-87
2022/07/23 09:54:05;;;;;;;10.23;9.23;;;11.90;99.90;;;;;;5093544;28;20361;-82
2022/07/23 09:56:34;;;;;;;11.88;10.52;;;11.80;99.90;;;;;;5092895;28;20372;-83
2022/07/23 09:59:11;;;;;;;12.20;11.00;;;11.90;99.90;;;;;;5091443;28;20422;-91
2022/07/23 10:01:40;;;;;;;16.02;14.32;;;11.80;99.90;;;;;;5092600;28;20372;-89
2022/07/23 10:04:07;;;;;;;17.73;15.93;;;11.80;99.90;;;;;;5091353;28;20840;-90
2022/07/23 10:06:36;;;;;;;35.85;30.27;;;11.70;99.90;;;;;;5092963;28;20400;-90
2022/07/23 10:09:03;;;;;;;62.15;43.95;;;;;;;;;;5092636;28;20369;-82
2022/07/23 10:11:31;;;;;;;39.53;31.25;;;;;;;;;;5092606;28;20459;-87
2022/07/23 10:14:00;;;;;;;19.60;17.47;;;;;;;;;;5093387;28;20364;-86
2022/07/23 10:16:27;;;;;;;24.17;21.88;;;;;;;;;;5093459;28;20372;-88
2022/07/23 10:18:54;;;;;;;26.30;23.57;;;;;;;;;;5092921;28;20424;-91
2022/07/23 10:21:25;;;;;;;26.63;23.83;;;;;;;;;;5092889;28;20372;-91
2022/07/23 10:24:12;;;;;;;23.60;20.15;;;;;;;;;;5093409;28;20364;-91
2022/07/23 10:27:05;;;;;;;25.60;22.88;;;;;;;;;;5011302;28;20410;-88
2022/07/23 10:29:40;;;;;;;18.70;16.67;;;;;;;;;;4933565;29;20461;-94
2022/07/23 10:32:07;;;;;;;19.88;17.80;;;;;;;;;;4933822;29;20875;-82
2022/07/23 10:34:40;;;;;;;71.22;61.33;;;;;;;;;;4933839;29;20441;-91
2022/07/23 10:37:23;;;;;;;68.25;60.75;;;;;;;;;;4933586;29;20378;-90
2022/07/23 10:40:09;;;;;;;34.38;30.30;;;;;;;;;;4934098;29;20454;-90
2022/07/23 10:42:36;;;;;;;25.20;22.55;;;;;;;;;;4933983;29;20947;-94
2022/07/23 10:45:22;;;;;;;23.20;20.77;;;;;;;;;;4933951;29;20885;-83
2022/07/23 10:47:53;;;;;;;23.23;20.58;;;;;;;;;;4933336;29;20452;-82
2022/07/23 10:50:21;;;;;;;28.67;23.40;;;;;;;;;;4933257;29;20393;-93
2022/07/23 10:53:08;;;;;;;62.90;33.23;;;;;;;;;;4933142;29;20446;-93
2022/07/23 10:55:35;;;;;;;60.63;33.38;;;;;;;;;;4932778;29;20445;-85
2022/07/23 10:58:03;;;;;;;80.88;37.28;;;;;;;;;;4932779;29;20422;-86
2022/07/23 11:00:31;;;;;;;53.33;34.10;;;;;;;;;;4932937;29;20382;-81
2022/07/23 11:03:00;;;;;;;57.72;36.60;;;;;;;;;;4950874;28;20883;-84
2022/07/23 11:05:47;;;;;;;57.92;40.53;;;;;;;;;;5022767;28;20368;-83
2022/07/23 11:08:17;;;;;;;54.45;43.97;;;;;;;;;;5092186;28;20365;-88
2022/07/23 11:10:52;;;;;;;94.55;83.88;;;;;;;;;;5092184;28;20376;-83
2022/07/23 11:13:29;;;;;;;93.53;83.50;;;;;;;;;;5092535;28;20369;-87
2022/07/23 11:16:05;;;;;;;97.78;81.35;;;;;;;;;;5095963;28;20356;-89
2022/07/23 11:18:42;;;;;;;56.33;50.05;;;;;;;;;;5095745;28;20380;-92
2022/07/23 11:21:28;;;;;;;46.42;38.33;;;;;;;;;;5096569;28;20755;-86
2022/07/23 11:23:58;;;;;;;48.13;40.67;;;;;;;;;;5097736;28;20361;-90
2022/07/23 11:26:48;;;;;;;46.30;36.35;;;11.70;99.90;;;;;;5101025;28;20421;-84
2022/07/23 11:29:37;;;;;;;50.92;38.03;;;10.80;99.90;;;;;;5103187;28;20448;-83
2022/07/23 11:32:24;;;;;;;71.60;61.45;;;10.90;99.90;;;;;;5103393;28;20369;-83
2022/07/23 11:34:53;;;;;;;51.80;39.90;;;10.90;99.90;;;;;;5098090;28;20434;-84
2022/07/23 11:37:39;;;;;;;64.30;46.50;;;10.90;99.90;;;;;;5096028;28;20403;-91
2022/07/23 11:40:12;;;;;;;53.05;40.47;;;10.80;99.90;;;;;;5094378;28;20387;-90
2022/07/23 11:42:51;;;;;;;43.75;35.38;;;10.60;99.90;;;;;;5096323;28;20376;-84
2022/07/23 11:45:19;;;;;;;51.63;41.88;;;10.50;99.90;;;;;;5095427;28;20376;-90
2022/07/23 11:47:46;;;;;;;49.55;41.28;;;10.50;99.90;;;;;;5095679;28;20392;-89
2022/07/23 11:50:13;;;;;;;52.65;43.25;;;10.40;99.90;;;;;;5094530;28;20384;-91
2022/07/23 11:52:41;;;;;;;43.40;34.08;;;10.40;99.90;;;;;;5095098;28;20376;-86
2022/07/23 11:55:10;;;;;;;35.35;29.90;;;10.30;99.90;;;;;;5095597;28;20404;-82
2022/07/23 11:57:40;;;;;;;36.42;30.92;;;10.40;99.90;;;;;;5096813;28;20381;-82
2022/07/23 12:00:16;;;;;;;30.30;24.85;;;10.50;99.90;;;;;;5095875;28;20368;-82
2022/07/23 12:02:46;;;;;;;39.55;28.40;;;10.60;99.90;;;;;;5095572;28;20376;-85
2022/07/23 12:05:15;;;;;;;29.33;22.00;;;10.60;99.90;;;;;;5094979;28;20372;-83
2022/07/23 12:07:50;;;;;;;26.95;22.40;;;10.50;99.90;;;;;;5094613;28;20857;-82
2022/07/23 12:10:25;;;;;;;29.17;24.23;;;10.40;99.90;;;;;;5095060;28;20476;-88
2022/07/23 12:13:04;;;;;;;32.20;25.17;;;10.40;99.90;;;;;;5094791;28;20357;-82
2022/07/23 12:15:41;;;;;;;29.70;24.23;;;10.30;99.90;;;;;;5094684;28;20381;-87
2022/07/23 12:18:15;;;;;;;22.55;18.95;;;10.30;99.90;;;;;;5094687;28;20868;-83
2022/07/23 12:20:48;;;;;;;18.58;16.58;;;10.20;99.90;;;;;;5095331;28;20360;-81
2022/07/23 12:23:18;;;;;;;21.60;19.33;;;10.20;99.90;;;;;;5094963;28;20379;-82
2022/07/23 12:25:47;;;;;;;28.50;25.52;;;10.20;99.90;;;;;;5093679;28;20381;-82
2022/07/23 12:28:19;;;;;;;33.58;28.15;;;10.40;99.90;;;;;;5094729;28;20383;-89
2022/07/23 12:30:48;;;;;;;33.20;28.63;;;10.40;99.90;;;;;;5095284;28;20712;-91
2022/07/23 12:33:27;;;;;;;29.35;25.30;;;10.20;99.90;;;;;;5094879;28;20467;-85
2022/07/23 12:35:57;;;;;;;30.27;23.95;;;10.20;99.90;;;;;;5094437;28;20368;-83
2022/07/23 12:38:26;;;;;;;34.65;25.08;;;10.10;99.90;;;;;;5094418;28;20424;-82
2022/07/23 12:41:00;;;;;;;36.15;27.30;;;10.10;99.90;;;;;;5094380;28;20368;-81
2022/07/23 12:43:36;;;;;;;31.10;23.77;;;10.00;99.90;;;;;;5094101;28;20364;-85
2022/07/23 12:46:20;;;;;;;28.85;24.35;;;10.00;99.90;;;;;;5094109;28;20737;-81
2022/07/23 12:48:50;;;;;;;28.60;22.70;;;9.90;99.90;;;;;;5094199;28;20372;-84
2022/07/23 12:51:32;;;;;;;25.67;21.05;;;9.90;99.90;;;;;;5094021;28;20981;-86
2022/07/23 12:54:09;;;;;;;25.30;20.63;;;9.80;99.90;;;;;;5094193;28;20774;-83
2022/07/23 12:56:44;;;;;;;24.35;20.10;;;9.80;99.90;;;;;;5093395;28;20394;-87
2022/07/23 12:59:16;;;;;;;23.90;19.52;;;9.70;99.90;;;;;;5094054;28;20911;-87
2022/07/23 13:01:48;;;;;;;27.05;21.83;;;9.80;99.90;;;;;;5093746;28;20388;-81
2022/07/23 13:04:21;;;;;;;30.65;24.52;;;9.70;99.90;;;;;;5093972;28;20832;-84
2022/07/23 13:07:02;;;;;;;42.40;29.00;;;9.80;99.90;;;;;;5093877;28;20400;-82
2022/07/23 13:09:32;;;;;;;34.25;25.63;;;9.80;99.90;;;;;;5093659;28;20368;-86
2022/07/23 13:11:59;;;;;;;37.97;26.55;;;9.80;99.90;;;;;;5094015;28;20381;-85
2022/07/23 13:14:28;;;;;;;36.92;25.48;;;9.80;99.90;;;;;;5093995;28;20372;-85
2022/07/23 13:16:56;;;;;;;48.58;27.40;;;9.80;99.90;;;;;;5093557;28;20380;-83
2022/07/23 13:19:23;;;;;;;49.97;26.73;;;9.90;99.90;;;;;;5092272;28;20376;-86
2022/07/23 13:21:50;;;;;;;59.67;25.37;;;9.80;99.90;;;;;;5093469;28;20375;-82
2022/07/23 13:24:17;;;;;;;35.83;20.60;;;9.70;99.90;;;;;;5093735;28;20895;-82
2022/07/23 13:26:46;;;;;;;38.25;23.10;;;9.60;99.90;;;;;;5093282;28;20400;-81
2022/07/23 13:29:14;;;;;;;36.85;23.35;;;9.50;99.90;;;;;;5093142;28;20419;-82
2022/07/23 13:31:41;;;;;;;59.55;28.63;;;9.50;99.90;;;;;;5093223;28;20376;-82
2022/07/23 13:34:08;;;;;;;56.70;27.97;;;9.50;99.90;;;;;;5093699;28;20365;-83
2022/07/23 13:36:38;;;;;;;50.42;28.33;;;9.60;99.90;;;;;;5092910;28;20376;-84
2022/07/23 13:39:07;;;;;;;46.83;29.27;;;9.60;99.90;;;;;;5094161;28;20380;-82
2022/07/23 13:41:34;;;;;;;53.00;30.38;;;9.60;99.90;;;;;;5091883;28;20392;-83
2022/07/23 13:44:01;;;;;;;56.78;31.15;;;9.60;99.90;;;;;;5093387;28;20379;-82
2022/07/23 13:46:28;;;;;;;49.83;28.27;;;9.60;99.90;;;;;;5092922;28;20399;-86
2022/07/23 13:48:56;;;;;;;47.55;28.23;;;9.50;99.90;;;;;;5093260;28;20365;-84
2022/07/23 13:51:24;;;;;;;43.53;28.08;;;9.40;99.90;;;;;;5092934;28;20453;-84
2022/07/23 13:53:51;;;;;;;51.28;30.00;;;9.30;99.90;;;;;;5093423;28;20411;-84
2022/07/23 13:56:18;;;;;;;51.80;28.35;;;9.30;99.90;;;;;;5092973;28;20373;-85
2022/07/23 13:58:45;;;;;;;49.08;26.30;;;9.40;99.90;;;;;;5093055;28;20361;-82
2022/07/23 14:01:12;;;;;;;28.77;21.73;;;9.40;99.90;;;;;;5093282;28;20381;-81
2022/07/23 14:03:39;;;;;;;25.98;19.85;;;9.40;99.90;;;;;;5093097;28;20414;-85